createdAt,value
2018-06-27T00:00:00.370Z,18.70
2018-06-27T00:02:28.791Z,18.20
2018-06-27T00:04:56.758Z,18.25
2018-06-27T00:07:25.010Z,18.30
2018-06-27T00:09:53.251Z,18.48
2018-06-27T00:12:21.198Z,18.10
2018-06-27T00:14:49.617Z,18.82
2018-06-27T00:17:17.894Z,20.17
2018-06-27T00:19:46.179Z,19.03
2018-06-27T00:22:14.435Z,18.00
2018-06-27T00:24:42.672Z,18.85
2018-06-27T00:27:10.752Z,18.48
2018-06-27T00:29:38.744Z,18.12
2018-06-27T00:32:06.974Z,18.00
2018-06-27T00:34:35.195Z,18.70
2018-06-27T00:37:03.455Z,18.27
2018-06-27T00:39:31.707Z,18.52
2018-06-27T00:41:59.991Z,18.90
2018-06-27T00:44:28.204Z,19.20
2018-06-27T00:46:56.515Z,20.02
2018-06-27T00:49:24.765Z,20.00
2018-06-27T00:51:52.985Z,17.03
2018-06-27T00:54:21.207Z,17.10
2018-06-27T00:56:49.190Z,18.37
2018-06-27T00:59:17.461Z,17.70
2018-06-27T01:01:45.691Z,18.50
2018-06-27T01:04:13.925Z,17.77
2018-06-27T01:06:42.155Z,16.57
2018-06-27T01:09:10.953Z,18.00
2018-06-27T01:11:39.461Z,17.60
2018-06-27T01:14:07.782Z,18.93
2018-06-27T01:16:36.028Z,18.30
2018-06-27T01:19:04.282Z,17.50
2018-06-27T01:21:32.579Z,19.97
2018-06-27T01:24:00.858Z,17.30
2018-06-27T01:26:29.078Z,19.00
2018-06-27T01:28:57.331Z,17.70
2018-06-27T01:31:25.563Z,17.30
2018-06-27T01:33:53.899Z,17.50
2018-06-27T01:36:22.167Z,17.90
2018-06-27T01:38:50.393Z,21.05
2018-06-27T01:41:18.635Z,16.23
2018-06-27T01:43:46.859Z,16.70
2018-06-27T01:46:15.122Z,16.13
2018-06-27T01:48:43.552Z,15.33
2018-06-27T01:51:11.795Z,14.53
2018-06-27T01:53:40.047Z,16.10
2018-06-27T01:56:09.591Z,17.60
2018-06-27T01:58:37.950Z,16.87
2018-06-27T02:01:06.335Z,17.17
2018-06-27T02:03:34.567Z,16.30
2018-06-27T02:06:02.803Z,17.50
2018-06-27T02:08:31.073Z,15.73
2018-06-27T02:10:59.364Z,16.13
2018-06-27T02:13:27.659Z,16.07
2018-06-27T02:15:55.909Z,15.80
2018-06-27T02:18:24.209Z,16.87
2018-06-27T02:20:52.454Z,15.60
2018-06-27T02:23:20.673Z,16.70
2018-06-27T02:25:48.993Z,16.47
2018-06-27T02:28:17.257Z,17.07
2018-06-27T02:30:45.503Z,15.47
2018-06-27T02:33:17.976Z,15.40
2018-06-27T02:35:46.218Z,15.13
2018-06-27T02:38:14.493Z,17.02
2018-06-27T02:40:42.782Z,18.02
2018-06-27T02:43:11.039Z,18.30
2018-06-27T02:45:39.023Z,15.65
2018-06-27T02:48:07.264Z,17.27
2018-06-27T02:50:35.499Z,17.82
2018-06-27T02:53:03.708Z,17.57
2018-06-27T02:55:31.933Z,17.67
2018-06-27T02:58:00.154Z,17.00
2018-06-27T03:00:28.128Z,18.12
2018-06-27T03:02:56.404Z,16.70
2018-06-27T03:05:24.624Z,16.87
2018-06-27T03:07:52.875Z,16.17
2018-06-27T03:10:21.097Z,16.17
2018-06-27T03:12:49.347Z,16.40
2018-06-27T03:15:17.591Z,17.63
2018-06-27T03:17:46.781Z,16.82
2018-06-27T03:20:15.085Z,16.62
2018-06-27T03:22:43.313Z,18.90
2018-06-27T03:25:11.569Z,15.63
2018-06-27T03:27:39.826Z,16.77
2018-06-27T03:30:08.334Z,15.05
2018-06-27T03:32:36.328Z,16.97
2018-06-27T03:35:04.558Z,16.67
2018-06-27T03:37:32.831Z,15.93
2018-06-27T03:40:01.154Z,14.47
2018-06-27T03:42:29.438Z,16.40
2018-06-27T03:44:57.733Z,16.60
2018-06-27T03:47:25.978Z,16.62
2018-06-27T03:49:54.215Z,15.83
2018-06-27T03:52:22.455Z,19.15
2018-06-27T03:54:50.686Z,18.57
2018-06-27T03:57:18.923Z,18.60
2018-06-27T03:59:47.178Z,18.07
2018-06-27T04:02:15.411Z,18.33
2018-06-27T04:04:43.665Z,21.40
2018-06-27T04:07:11.918Z,18.62
2018-06-27T04:09:40.149Z,17.47
2018-06-27T04:12:08.393Z,24.60
2018-06-27T04:14:36.679Z,20.57
2018-06-27T04:17:04.849Z,24.87
2018-06-27T04:19:33.075Z,23.50
2018-06-27T04:22:01.322Z,24.83
2018-06-27T04:24:29.298Z,25.35
2018-06-27T04:26:57.563Z,23.23
2018-06-27T04:29:25.861Z,23.60
2018-06-27T04:31:54.087Z,22.70
2018-06-27T04:34:22.362Z,24.90
2018-06-27T04:36:50.599Z,25.02
2018-06-27T04:39:18.854Z,24.95
2018-06-27T04:41:47.072Z,25.50
2018-06-27T04:44:15.340Z,19.83
2018-06-27T04:46:43.562Z,22.20
2018-06-27T04:49:11.762Z,20.60
2018-06-27T04:51:39.995Z,20.30
2018-06-27T04:54:08.227Z,20.13
2018-06-27T04:56:36.478Z,22.10
2018-06-27T04:59:04.471Z,20.97
2018-06-27T05:01:32.479Z,23.10
2018-06-27T05:04:00.730Z,23.13
2018-06-27T05:06:28.950Z,23.47
2018-06-27T05:08:57.205Z,24.20
2018-06-27T05:11:25.604Z,25.50
2018-06-27T05:13:53.918Z,25.27
2018-06-27T05:16:22.140Z,25.93
2018-06-27T05:18:50.383Z,24.67
2018-06-27T05:21:18.595Z,25.40
2018-06-27T05:23:47.015Z,24.20
2018-06-27T05:26:15.271Z,27.00
2018-06-27T05:28:43.510Z,25.47
2018-06-27T05:31:11.739Z,25.43
2018-06-27T05:33:39.955Z,28.63
2018-06-27T05:36:08.160Z,24.70
2018-06-27T05:38:36.389Z,27.13
2018-06-27T05:41:04.638Z,26.90
2018-06-27T05:43:32.843Z,25.27
2018-06-27T05:46:00.947Z,24.50
2018-06-27T05:48:29.167Z,23.90
2018-06-27T05:50:57.407Z,23.87
2018-06-27T05:53:25.381Z,24.37
2018-06-27T05:55:53.591Z,23.87
2018-06-27T05:58:21.927Z,24.20
2018-06-27T06:00:50.106Z,23.30
2018-06-27T06:03:18.345Z,20.10
2018-06-27T06:05:46.602Z,23.23
2018-06-27T06:08:14.886Z,20.50
2018-06-27T06:10:43.133Z,21.27
2018-06-27T06:13:11.339Z,21.57
2018-06-27T06:15:39.595Z,20.47
2018-06-27T06:18:07.820Z,22.03
2018-06-27T06:20:36.150Z,24.40
2018-06-27T06:23:04.395Z,22.00
2018-06-27T06:25:32.635Z,22.30
2018-06-27T06:28:00.935Z,21.63
2018-06-27T06:30:29.147Z,19.87
2018-06-27T06:32:57.378Z,20.03
2018-06-27T06:35:25.638Z,22.80
2018-06-27T06:37:53.872Z,22.97
2018-06-27T06:40:22.256Z,22.57
2018-06-27T06:42:50.524Z,21.27
2018-06-27T06:45:18.773Z,21.20
2018-06-27T06:47:46.999Z,19.40
2018-06-27T06:50:15.291Z,31.70
2018-06-27T06:52:43.597Z,20.63
2018-06-27T06:55:11.847Z,20.93
2018-06-27T06:57:40.086Z,23.10
2018-06-27T07:00:08.079Z,19.63
2018-06-27T07:02:36.576Z,20.20
2018-06-27T07:05:05.103Z,26.20
2018-06-27T07:07:33.049Z,20.67
2018-06-27T07:10:01.278Z,22.07
2018-06-27T07:12:29.519Z,20.60
2018-06-27T07:14:57.768Z,19.83
2018-06-27T07:17:26.003Z,19.10
2018-06-27T07:19:54.256Z,18.90
2018-06-27T07:22:22.222Z,19.27
2018-06-27T07:24:50.456Z,18.73
2018-06-27T07:27:18.700Z,17.30
2018-06-27T07:29:46.946Z,17.57
2018-06-27T07:32:15.229Z,19.93
2018-06-27T07:34:43.462Z,19.70
2018-06-27T07:37:11.698Z,16.83
2018-06-27T07:39:39.948Z,24.03
2018-06-27T07:42:09.182Z,32.17
2018-06-27T07:44:37.439Z,17.97
2018-06-27T07:47:05.707Z,17.97
2018-06-27T07:49:33.927Z,20.40
2018-06-27T07:52:02.858Z,17.83
2018-06-27T07:54:35.314Z,17.07
2018-06-27T07:57:03.613Z,18.50
2018-06-27T07:59:31.591Z,16.70
2018-06-27T08:01:59.878Z,18.27
2018-06-27T08:04:28.172Z,15.50
2018-06-27T08:06:56.398Z,16.23
2018-06-27T08:09:24.619Z,18.27
2018-06-27T08:11:52.860Z,16.37
2018-06-27T08:14:21.094Z,15.97
2018-06-27T08:16:49.331Z,15.37
2018-06-27T08:19:17.602Z,16.47
2018-06-27T08:21:45.866Z,18.43
2018-06-27T10:37:05.551Z,5.97
2018-06-27T10:39:33.778Z,6.17
2018-06-27T10:42:01.993Z,4.43
2018-06-27T10:44:29.974Z,4.70
2018-06-27T10:46:58.164Z,4.70
2018-06-27T10:49:26.124Z,4.90
2018-06-27T10:51:54.351Z,4.60
2018-06-27T10:54:22.576Z,5.77
2018-06-27T10:56:50.794Z,6.03
2018-06-27T10:59:19.123Z,5.20
2018-06-27T11:01:47.403Z,7.20
2018-06-27T11:04:15.704Z,4.00
2018-06-27T11:06:43.995Z,3.93
2018-06-27T11:09:12.233Z,3.97
2018-06-27T11:14:08.047Z,4.10
2018-06-27T11:16:36.391Z,4.00
2018-06-27T11:19:04.676Z,3.47
2018-06-27T11:21:32.910Z,4.20
2018-06-27T11:24:01.146Z,4.20
2018-06-27T11:26:29.402Z,3.60
2018-06-27T11:28:57.630Z,4.10
